Map

Track Data

SID SEASON NUMBER BASIN SUBBASIN NAME ISO_TIME NATURE LAT LON WMO_WIND WMO_PRES WMO_AGENCY TRACK_TYPE DIST2LAND LANDFALL IFLAG USA_AGENCY USA_ATCF_ID USA_LAT USA_LON USA_RECORD USA_STATUS USA_WIND USA_PRES USA_SSHS USA_R34_NE USA_R34_SE USA_R34_SW USA_R34_NW USA_R50_NE USA_R50_SE USA_R50_SW USA_R50_NW USA_R64_NE USA_R64_SE USA_R64_SW USA_R64_NW USA_POCI USA_ROCI USA_RMW USA_EYE TOKYO_LAT TOKYO_LON TOKYO_GRADE TOKYO_WIND TOKYO_PRES TOKYO_R50_DIR TOKYO_R50_LONG TOKYO_R50_SHORT TOKYO_R30_DIR TOKYO_R30_LONG TOKYO_R30_SHORT TOKYO_LAND CMA_LAT CMA_LON CMA_CAT CMA_WIND CMA_PRES HKO_LAT HKO_LON HKO_CAT HKO_WIND HKO_PRES NEWDELHI_LAT NEWDELHI_LON NEWDELHI_GRADE NEWDELHI_WIND NEWDELHI_PRES NEWDELHI_CI NEWDELHI_DP NEWDELHI_POCI REUNION_LAT REUNION_LON REUNION_TYPE REUNION_WIND REUNION_PRES REUNION_TNUM REUNION_CI REUNION_RMW REUNION_R34_NE REUNION_R34_SE REUNION_R34_SW REUNION_R34_NW REUNION_R50_NE REUNION_R50_SE REUNION_R50_SW REUNION_R50_NW REUNION_R64_NE REUNION_R64_SE REUNION_R64_SW REUNION_R64_NW BOM_LAT BOM_LON BOM_TYPE BOM_WIND BOM_PRES BOM_TNUM BOM_CI BOM_RMW BOM_R34_NE BOM_R34_SE BOM_R34_SW BOM_R34_NW BOM_R50_NE BOM_R50_SE BOM_R50_SW BOM_R50_NW BOM_R64_NE BOM_R64_SE BOM_R64_SW BOM_R64_NW BOM_ROCI BOM_POCI BOM_EYE BOM_POS_METHOD BOM_PRES_METHOD NADI_LAT NADI_LON NADI_CAT NADI_WIND NADI_PRES WELLINGTON_LAT WELLINGTON_LON WELLINGTON_WIND WELLINGTON_PRES DS824_LAT DS824_LON DS824_STAGE DS824_WIND DS824_PRES TD9636_LAT TD9636_LON TD9636_STAGE TD9636_WIND TD9636_PRES TD9635_LAT TD9635_LON TD9635_WIND TD9635_PRES TD9635_ROCI NEUMANN_LAT NEUMANN_LON NEUMANN_CLASS NEUMANN_WIND NEUMANN_PRES MLC_LAT MLC_LON MLC_CLASS MLC_WIND MLC_PRES USA_GUST BOM_GUST BOM_GUST_PER REUNION_GUST REUNION_GUST_PER USA_SEAHGT USA_SEARAD_NE USA_SEARAD_SE USA_SEARAD_SW USA_SEARAD_NW STORM_SPEED STORM_DIR
1966322N09087 1966 110 NI BB NOT_NAMED 1966-11-17 18:00:00 TS 9.20000 87.0000 main 599 599 O________O____ jtwc_io IO151966 9.20000 87.0000 -1 9.20000 87.0000 TC 2 16
1966322N09087 1966 110 NI BB NOT_NAMED 1966-11-17 21:00:00 TS 9.30750 87.0350 main 603 603 P________P____ IO151966 9.30750 87.0350 -1 9.30750 87.0350 TC 2 8
1966322N09087 1966 110 NI BB NOT_NAMED 1966-11-18 00:00:00 TS 9.40000 87.0000 main 606 596 O________O____ jtwc_io IO151966 9.40000 87.0000 -1 9.40000 87.0000 TC 25 3 312
1966322N09087 1966 110 NI BB NOT_NAMED 1966-11-18 03:00:00 TS 9.47999 86.8399 main 589 573 P________PO___ IO151966 9.47749 86.8449 -1 9.47749 86.8449 TC 25 9.50000 86.8000 1 4 296
1966322N09087 1966 110 NI BB NOT_NAMED 1966-11-18 06:00:00 TS 9.59504 86.5917 main 573 548 O________OP___ jtwc_io IO151966 9.60000 86.6000 -1 9.60000 86.6000 TC 25 9.57520 86.5586 1 6 299
1966322N09087 1966 110 NI BB NOT_NAMED 1966-11-18 09:00:00 TS 9.77374 86.3038 main 552 533 P________PP___ IO151966 9.79755 86.3000 -1 9.79755 86.3000 TC 25 9.71023 86.3138 1 7 309
1966322N09087 1966 110 NI BB NOT_NAMED 1966-11-18 12:00:00 TS 10.0550 86.0207 main 537 527 O________OP___ jtwc_io IO151966 10.1000 86.0000 -1 10.1000 86.0000 TC 25 9.96513 86.0622 1 8 323
1966322N09087 1966 110 NI BB NOT_NAMED 1966-11-18 15:00:00 TS 10.4400 85.7948 main 532 527 P________PO___ IO151966 10.4600 85.7923 -1 10.4600 85.7923 TC 25 10.4000 85.8000 1 11 335
1966322N09087 1966 110 NI BB NOT_NAMED 1966-11-18 18:00:00 TS 11.0149 85.5761 main 545 541 O________OP___ jtwc_io IO151966 11.0000 85.6000 -1 11.0000 85.6000 TC 25 11.0447 85.5283 1 15 342
1966322N09087 1966 110 NI BB NOT_NAMED 1966-11-18 21:00:00 TS 11.8459 85.3183 main 560 526 P________PP___ IO151966 11.8650 85.3428 -1 11.8650 85.3428 TC 30 11.8076 85.2691 1 17 344
1966322N09087 1966 110 NI BB NOT_NAMED 1966-11-19 00:00:00 TS 12.6556 85.0834 main 524 481 O________OP___ jtwc_io IO151966 12.7000 85.1000 -1 12.7000 85.1000 TC 35 12.5667 85.0501 1 14 343
1966322N09087 1966 110 NI BB NOT_NAMED 1966-11-19 03:00:00 TS 13.1650 84.8982 main 472 447 P________PO___ IO151966 13.1474 84.8974 -1 13.1474 84.8974 TC 35 13.2000 84.9000 2 8 342
1966322N09087 1966 110 NI BB NOT_NAMED 1966-11-19 06:00:00 TS 13.4519 84.8202 main 438 428 O________OP___ jtwc_io IO151966 13.4000 84.8000 -1 13.4000 84.8000 TC 35 13.5557 84.8605 2 5 358
1966322N09087 1966 110 NI BB NOT_NAMED 1966-11-19 09:00:00 TS 13.6774 84.8813 main 428 419 P________PP___ IO151966 13.6300 84.8774 -1 13.6300 84.8774 TC 35 13.7722 84.8891 2 4 22
1966322N09087 1966 110 NI BB NOT_NAMED 1966-11-19 12:00:00 TS 13.8342 84.9827 main 426 410 O________OP___ jtwc_io IO151966 13.8000 85.0000 -1 13.8000 85.0000 TC 35 13.9027 84.9482 2 3 23
1966322N09087 1966 110 NI BB NOT_NAMED 1966-11-19 15:00:00 TS 13.9767 85.0150 main 410 402 P________PO___ IO151966 13.9650 85.0225 -1 13.9650 85.0225 TC 35 14.0000 85.0000 3 3 5
1966322N09087 1966 110 NI BB NOT_NAMED 1966-11-19 18:00:00 TS 14.1074 84.9951 main 402 394 O________OP___ jtwc_io IO151966 14.1000 85.0000 -1 14.1000 85.0000 TC 35 14.1222 84.9854 3 2 345
1966322N09087 1966 110 NI BB NOT_NAMED 1966-11-19 21:00:00 TS 14.1992 84.9525 main 394 379 P________PP___ IO151966 14.1850 84.9500 -1 14.1850 84.9500 TC 50 14.2275 84.9576 3 2 340
1966322N09087 1966 110 NI BB NOT_NAMED 1966-11-20 00:00:00 TS 14.3147 84.9087 main 379 364 O________OP___ jtwc_io IO151966 14.3000 84.9000 -1 14.3000 84.9000 TC 65 14.3441 84.9260 3 3 350
1966322N09087 1966 110 NI BB NOT_NAMED 1966-11-20 03:00:00 TS 14.5183 84.8950 main 364 343 P________PO___ IO151966 14.5275 84.8925 -1 14.5275 84.8925 TC 65 14.5000 84.9000 4 5 357
1966322N09087 1966 110 NI BB NOT_NAMED 1966-11-20 06:00:00 TS 14.7786 84.8976 main 343 330 O________OP___ jtwc_io IO151966 14.8000 84.9000 -1 14.8000 84.9000 TC 65 14.7359 84.8928 4 5 1
1966322N09087 1966 110 NI BB NOT_NAMED 1966-11-20 09:00:00 TS 15.0325 84.8975 main 330 313 P________PP___ IO151966 15.0425 84.9000 -1 15.0425 84.9000 TC 65 15.0125 84.8925 4 5 0
1966322N09087 1966 110 NI BB NOT_NAMED 1966-11-20 12:00:00 TS 15.3026 84.8986 main 313 287 O________OP___ jtwc_io IO151966 15.3000 84.9000 -1 15.3000 84.9000 TC 65 15.3078 84.8959 4 6 0
1966322N09087 1966 110 NI BB NOT_NAMED 1966-11-20 15:00:00 TS 15.6050 84.9000 main 287 262 P________PO___ IO151966 15.6075 84.9000 -1 15.6075 84.9000 TC 65 15.6000 84.9000 4 6 0
1966322N09087 1966 110 NI BB NOT_NAMED 1966-11-20 18:00:00 TS 15.8763 84.9027 main 262 246 O________OP___ jtwc_io IO151966 15.9000 84.9000 -1 15.9000 84.9000 TC 65 15.8288 84.9080 4 5 0
1966322N09087 1966 110 NI BB NOT_NAMED 1966-11-20 21:00:00 TS 16.0800 84.9049 main 246 231 P________PP___ IO151966 16.0925 84.9000 -1 16.0925 84.9000 TC 65 16.0550 84.9148 4 4 0
1966322N09087 1966 110 NI BB NOT_NAMED 1966-11-21 00:00:00 TS 16.3013 84.9047 main 231 208 O________OP___ jtwc_io IO151966 16.3000 84.9000 -1 16.3000 84.9000 TC 65 16.3038 84.9142 4 5 0
1966322N09087 1966 110 NI BB NOT_NAMED 1966-11-21 03:00:00 TS 16.6083 84.9050 main 208 168 P________PO___ IO151966 16.6125 84.9074 -1 16.6125 84.9074 TC 65 16.6000 84.9000 4 7 0
1966322N09087 1966 110 NI BB NOT_NAMED 1966-11-21 06:00:00 TS 17.0051 84.8949 main 168 131 O________OP___ jtwc_io IO151966 17.0000 84.9000 -1 17.0000 84.9000 TC 65 17.0152 84.8846 4 9 357
1966322N09087 1966 110 NI BB NOT_NAMED 1966-11-21 09:00:00 TS 17.4575 84.8608 main 123 85 P________PP___ IO151966 17.4500 84.8650 -1 17.4500 84.8650 TC 65 17.4724 84.8524 4 9 354
1966322N09087 1966 110 NI BB NOT_NAMED 1966-11-21 12:00:00 TS 17.9061 84.7980 main 85 46 O________OP___ jtwc_io IO151966 17.9000 84.8000 -1 17.9000 84.8000 TC 65 17.9184 84.7940 4 9 351
1966322N09087 1966 110 NI BB NOT_NAMED 1966-11-21 15:00:00 TS 18.2966 84.7150 main 46 15 P________PO___ IO151966 18.2950 84.7225 -1 18.2950 84.7225 TC 50 18.3000 84.7000 4 7 344
1966322N09087 1966 110 NI BB NOT_NAMED 1966-11-21 18:00:00 TS 18.5912 84.5858 main 15 0 O________OP___ jtwc_io IO151966 18.6000 84.6000 -1 18.6000 84.6000 TC 35 18.5779 84.5644 4 6 329
1966322N09087 1966 110 NI BB NOT_NAMED 1966-11-21 21:00:00 TS 18.7776 84.4079 main 0 0 P________PP___ IO151966 18.7851 84.4175 -1 18.7851 84.4175 TC 30 18.7677 84.3951 4 5 310
1966322N09087 1966 110 NI BB NOT_NAMED 1966-11-22 00:00:00 TS 18.8993 84.2016 main 0 0 O________OP___ jtwc_io IO151966 18.9000 84.2000 -1 18.9000 84.2000 TC 25 18.8986 84.2032 4 4 300
1966322N09087 1966 110 NI BB NOT_NAMED 1966-11-22 03:00:00 NR 19.0000 84.0000 main 0 __________O___ IO151966 -1 TC 19.0000 84.0000 1 4 298

About IBTrACS Database

This database is a web-friendly format of International Best Track Archive for Climate Stewardship (IBTrACS), a global best track data archive curated by NOAA dating back to 1842.

Updated: 2021-10-21